Time;durP1;ratioP1;P1;durP2;ratioP2;P2;SDS_P1;SDS_P2;PMS_P1;PMS_P2;Temp;Humidity;BMP_temperature;BMP_pressure;BME280_temperature;BME280_humidity;BME280_pressure;Samples;Min_cycle;Max_cycle;Signal;HPM_P1;HPM_P2
2024/02/03 00:01:56;;;;;;;184.20;76.30;;;9.10;99.90;;;;;;5075871;28;20371;-68
2024/02/03 00:04:22;;;;;;;177.88;72.03;;;9.10;99.90;;;;;;5076129;28;20024;-68
2024/02/03 00:06:48;;;;;;;179.27;75.28;;;9.10;99.90;;;;;;5075948;28;20386;-68
2024/02/03 00:09:13;;;;;;;165.80;70.88;;;9.10;99.90;;;;;;5075827;28;20335;-69
2024/02/03 00:11:39;;;;;;;172.35;75.13;;;9.10;99.90;;;;;;5075530;28;20025;-69
2024/02/03 00:14:05;;;;;;;163.52;67.95;;;9.10;99.90;;;;;;5075535;28;20041;-68
2024/02/03 00:16:30;;;;;;;165.15;68.53;;;9.20;99.90;;;;;;5075718;28;20162;-68
2024/02/03 00:18:56;;;;;;;165.63;71.75;;;9.10;99.90;;;;;;5075507;28;20036;-68
2024/02/03 00:21:22;;;;;;;157.48;67.22;;;9.10;99.90;;;;;;5075625;28;20040;-69
2024/02/03 00:23:47;;;;;;;164.82;68.47;;;9.10;99.90;;;;;;5075498;28;20035;-69
2024/02/03 00:26:13;;;;;;;166.82;70.07;;;9.10;99.90;;;;;;5075298;28;20441;-69
2024/02/03 00:28:38;;;;;;;152.93;67.05;;;9.20;99.90;;;;;;5075290;28;20025;-69
2024/02/03 00:31:05;;;;;;;156.30;66.90;;;9.20;99.90;;;;;;5075369;28;20028;-68
2024/02/03 00:33:30;;;;;;;146.25;63.42;;;9.20;99.90;;;;;;5075335;28;20031;-68
2024/02/03 00:35:56;;;;;;;149.57;65.63;;;9.20;99.90;;;;;;5074933;28;20025;-68
2024/02/03 00:38:22;;;;;;;155.73;66.22;;;9.20;99.90;;;;;;5075210;28;20111;-69
2024/02/03 00:40:48;;;;;;;148.82;65.90;;;9.20;99.90;;;;;;5075365;28;20029;-69
2024/02/03 00:43:16;;;;;;;148.02;62.45;;;9.20;99.90;;;;;;5074911;28;20059;-69
2024/02/03 00:45:42;;;;;;;137.13;62.08;;;9.20;99.90;;;;;;5074760;28;20027;-69
2024/02/03 00:48:08;;;;;;;133.88;60.08;;;9.20;99.90;;;;;;5074737;28;20017;-68
2024/02/03 00:50:33;;;;;;;126.18;57.60;;;9.20;99.90;;;;;;5075053;28;20372;-69
2024/02/03 00:52:59;;;;;;;133.57;58.00;;;9.20;99.90;;;;;;5074628;28;20025;-68
2024/02/03 00:55:25;;;;;;;125.85;56.05;;;9.20;99.90;;;;;;5074757;28;20031;-68
2024/02/03 00:57:50;;;;;;;119.75;55.55;;;9.20;99.90;;;;;;5075061;28;20040;-68
2024/02/03 01:00:16;;;;;;;116.63;54.53;;;9.20;99.90;;;;;;5074849;28;20031;-69
2024/02/03 01:02:42;;;;;;;112.60;52.30;;;9.20;99.90;;;;;;5074649;28;20509;-68
2024/02/03 01:05:08;;;;;;;109.88;52.40;;;9.20;99.90;;;;;;5074525;28;20371;-69
2024/02/03 01:07:34;;;;;;;117.30;55.38;;;9.20;99.90;;;;;;5074537;28;20110;-68
2024/02/03 01:09:59;;;;;;;113.43;50.95;;;9.20;99.90;;;;;;5074651;28;20032;-68
2024/02/03 01:12:25;;;;;;;111.13;52.95;;;9.30;99.90;;;;;;5074624;28;20494;-68
2024/02/03 01:14:51;;;;;;;124.30;56.03;;;9.20;99.90;;;;;;5073474;28;20056;-68
2024/02/03 01:17:17;;;;;;;117.80;52.70;;;9.20;99.90;;;;;;5074434;28;20029;-68
2024/02/03 01:19:43;;;;;;;116.85;54.17;;;9.20;99.90;;;;;;5074412;28;20036;-68
2024/02/03 01:22:08;;;;;;;125.13;59.08;;;9.20;99.90;;;;;;5074401;28;20033;-68
2024/02/03 01:24:34;;;;;;;131.05;57.03;;;9.20;99.90;;;;;;5074113;28;20474;-68
2024/02/03 01:27:00;;;;;;;130.80;58.15;;;9.20;99.90;;;;;;5074023;28;20478;-68
2024/02/03 01:29:25;;;;;;;137.88;60.60;;;9.20;99.90;;;;;;5073032;28;20439;-68
2024/02/03 01:31:51;;;;;;;142.13;61.67;;;9.20;99.90;;;;;;5074146;28;20112;-67
2024/02/03 01:34:17;;;;;;;141.57;63.65;;;9.20;99.90;;;;;;5073647;28;20077;-68
2024/02/03 01:36:42;;;;;;;137.07;60.50;;;9.20;99.90;;;;;;5074147;28;20043;-68
2024/02/03 01:39:08;;;;;;;140.18;59.75;;;9.20;99.90;;;;;;5074132;28;20458;-69
2024/02/03 01:41:34;;;;;;;140.30;62.13;;;9.20;99.90;;;;;;5073960;28;20037;-69
2024/02/03 01:43:59;;;;;;;138.60;60.97;;;9.30;99.90;;;;;;5073559;28;20048;-69
2024/02/03 01:46:25;;;;;;;152.68;65.75;;;9.30;99.90;;;;;;5073661;28;20060;-68
2024/02/03 01:48:51;;;;;;;141.57;63.50;;;9.20;99.90;;;;;;5073503;28;20021;-69
2024/02/03 01:51:19;;;;;;;142.23;63.15;;;9.30;99.90;;;;;;5073810;28;20024;-69
2024/02/03 01:53:46;;;;;;;142.23;62.63;;;9.30;99.90;;;;;;5073791;28;20021;-69
2024/02/03 01:56:14;;;;;;;148.30;64.53;;;9.30;99.90;;;;;;5073420;28;20060;-68
2024/02/03 01:58:39;;;;;;;150.45;62.63;;;9.30;99.90;;;;;;5073645;28;20029;-69
2024/02/03 02:01:06;;;;;;;148.05;65.45;;;9.30;99.90;;;;;;5073692;28;20414;-69
2024/02/03 02:03:32;;;;;;;151.88;65.97;;;9.30;99.90;;;;;;5073424;28;20027;-69
2024/02/03 02:05:58;;;;;;;138.80;60.88;;;9.30;99.90;;;;;;5073476;28;20107;-69
2024/02/03 02:08:39;;;;;;;142.82;62.75;;;9.30;99.90;;;;;;5073397;28;20444;-69
2024/02/03 02:11:06;;;;;;;133.32;59.28;;;9.30;99.90;;;;;;5073582;28;20024;-69
2024/02/03 02:13:32;;;;;;;130.98;59.65;;;9.30;99.90;;;;;;5073179;28;20025;-68
2024/02/03 02:15:58;;;;;;;137.27;60.55;;;9.30;99.90;;;;;;5073095;28;20427;-69
2024/02/03 02:18:24;;;;;;;140.15;61.58;;;9.30;99.90;;;;;;5073431;28;20033;-68
2024/02/03 02:20:50;;;;;;;143.13;62.65;;;9.30;99.90;;;;;;5073234;28;20027;-69
2024/02/03 02:23:16;;;;;;;136.57;60.08;;;9.30;99.90;;;;;;5073340;28;20105;-69
2024/02/03 02:25:42;;;;;;;133.38;60.22;;;9.40;99.90;;;;;;5072938;28;20089;-69
2024/02/03 02:28:07;;;;;;;135.43;61.00;;;9.30;99.90;;;;;;5073278;28;20029;-69
2024/02/03 02:30:33;;;;;;;133.27;59.83;;;9.40;99.90;;;;;;5072888;28;20017;-69
2024/02/03 02:33:01;;;;;;;133.43;61.60;;;9.40;99.90;;;;;;5073169;28;20033;-69
2024/02/03 02:35:27;;;;;;;127.35;59.67;;;9.40;99.90;;;;;;5073105;28;20029;-68
2024/02/03 02:37:52;;;;;;;124.63;58.50;;;9.40;99.90;;;;;;5073258;28;20029;-69
2024/02/03 02:40:18;;;;;;;120.13;55.65;;;9.40;99.90;;;;;;5072711;28;20021;-69
2024/02/03 02:42:44;;;;;;;111.50;54.90;;;9.40;99.90;;;;;;5072017;28;20505;-69
2024/02/03 02:45:10;;;;;;;116.53;55.75;;;9.40;99.90;;;;;;5072590;28;20040;-69
2024/02/03 02:47:36;;;;;;;112.22;54.47;;;9.40;99.90;;;;;;5073138;28;20025;-69
2024/02/03 02:50:02;;;;;;;109.18;52.70;;;9.40;99.90;;;;;;5073187;28;20052;-69
2024/02/03 02:52:27;;;;;;;112.90;54.22;;;9.40;99.90;;;;;;5073133;28;20032;-69
2024/02/03 02:54:53;;;;;;;108.57;50.13;;;9.40;99.90;;;;;;5073118;28;20025;-69
2024/02/03 02:57:19;;;;;;;109.93;51.55;;;9.40;99.90;;;;;;5072940;28;20448;-69
2024/02/03 02:59:44;;;;;;;103.93;51.35;;;9.40;99.90;;;;;;5072984;28;20402;-69
2024/02/03 03:02:10;;;;;;;102.70;51.47;;;9.40;99.90;;;;;;5072974;28;20386;-69
2024/02/03 03:04:35;;;;;;;108.15;52.85;;;9.40;99.90;;;;;;5072663;28;20509;-69
2024/02/03 03:07:01;;;;;;;108.38;51.78;;;9.40;99.90;;;;;;5072670;28;20157;-69
2024/02/03 03:09:26;;;;;;;105.10;52.50;;;9.40;99.90;;;;;;5072970;28;20051;-69
2024/02/03 03:11:52;;;;;;;110.05;53.50;;;9.40;99.90;;;;;;5072855;28;20024;-69
2024/02/03 03:14:18;;;;;;;110.30;51.58;;;9.40;99.90;;;;;;5072664;28;20082;-69
2024/02/03 03:16:43;;;;;;;109.55;52.70;;;9.40;99.90;;;;;;5072674;28;20029;-69
2024/02/03 03:19:09;;;;;;;100.95;48.92;;;9.40;99.90;;;;;;5072866;28;20036;-69
2024/02/03 03:21:35;;;;;;;101.28;49.53;;;9.40;99.90;;;;;;5072850;28;20029;-69
2024/02/03 03:24:01;;;;;;;104.78;49.33;;;9.40;99.90;;;;;;5072504;28;20124;-69
2024/02/03 03:26:26;;;;;;;101.85;47.90;;;9.40;99.90;;;;;;5073681;28;20056;-69
2024/02/03 03:28:52;;;;;;;95.22;48.15;;;9.40;99.90;;;;;;5076274;28;20020;-69
2024/02/03 03:31:17;;;;;;;101.82;50.63;;;9.50;99.90;;;;;;5076619;28;20021;-68
2024/02/03 03:33:43;;;;;;;94.70;47.10;;;9.40;99.90;;;;;;5076054;28;20486;-69
2024/02/03 03:36:10;;;;;;;96.65;47.13;;;9.40;99.90;;;;;;5076632;28;20025;-69
2024/02/03 03:38:42;;;;;;;96.20;47.92;;;9.40;99.90;;;;;;5076467;28;20032;-69
2024/02/03 03:41:09;;;;;;;92.28;45.75;;;9.50;99.90;;;;;;5076364;28;20454;-69
2024/02/03 03:43:35;;;;;;;93.88;47.17;;;9.50;99.90;;;;;;5076189;28;20041;-69
2024/02/03 03:46:01;;;;;;;89.88;46.10;;;9.50;99.90;;;;;;5076331;28;20588;-69
2024/02/03 03:48:26;;;;;;;93.60;47.67;;;9.50;99.90;;;;;;5075996;28;20387;-69
2024/02/03 03:50:52;;;;;;;89.40;45.92;;;9.50;99.90;;;;;;5076465;28;20029;-69
2024/02/03 03:53:17;;;;;;;91.22;45.63;;;9.50;99.90;;;;;;5075856;28;20107;-69
2024/02/03 03:55:43;;;;;;;88.82;44.97;;;9.60;99.90;;;;;;5076158;28;20537;-69
2024/02/03 03:58:08;;;;;;;85.97;45.08;;;9.50;99.90;;;;;;5075737;28;20024;-69
2024/02/03 04:00:34;;;;;;;85.63;44.92;;;9.60;99.90;;;;;;5076060;28;20093;-69
2024/02/03 04:02:59;;;;;;;90.85;45.67;;;9.50;99.90;;;;;;5076071;28;20119;-69
2024/02/03 04:05:25;;;;;;;89.70;44.75;;;9.60;99.90;;;;;;5075522;28;20478;-69
2024/02/03 04:07:51;;;;;;;88.88;45.55;;;9.60;99.90;;;;;;5076243;28;20470;-69
2024/02/03 04:10:17;;;;;;;92.95;47.25;;;9.60;99.90;;;;;;5075514;28;20032;-69
2024/02/03 04:12:44;;;;;;;87.85;43.80;;;9.60;99.90;;;;;;5075373;28;20029;-69
2024/02/03 04:15:10;;;;;;;85.85;43.90;;;9.50;99.90;;;;;;5075748;28;20060;-69
2024/02/03 04:17:36;;;;;;;92.82;46.28;;;9.50;99.90;;;;;;5075349;28;20036;-69
2024/02/03 04:20:03;;;;;;;85.88;43.17;;;9.50;99.90;;;;;;5075682;28;20542;-69
2024/02/03 04:22:28;;;;;;;89.00;45.50;;;9.50;99.90;;;;;;5075700;28;20482;-69
2024/02/03 04:24:54;;;;;;;86.88;44.15;;;9.40;99.90;;;;;;5074970;28;20036;-69
2024/02/03 04:27:19;;;;;;;84.07;42.70;;;9.50;99.90;;;;;;5075412;28;20033;-69
2024/02/03 04:29:45;;;;;;;85.93;44.08;;;9.40;99.90;;;;;;5074957;28;20029;-69
2024/02/03 04:32:12;;;;;;;88.85;43.78;;;9.40;99.90;;;;;;5075219;28;20482;-69
2024/02/03 04:34:38;;;;;;;83.82;43.58;;;9.40;99.90;;;;;;5075419;28;20036;-69
2024/02/03 04:37:03;;;;;;;87.22;42.20;;;9.40;99.90;;;;;;5075031;28;20041;-69
2024/02/03 04:39:29;;;;;;;80.53;41.88;;;9.40;99.90;;;;;;5075240;28;20063;-69
2024/02/03 04:41:54;;;;;;;82.75;42.80;;;9.50;99.90;;;;;;5075227;28;20055;-69
2024/02/03 04:44:20;;;;;;;83.20;44.33;;;9.40;99.90;;;;;;5074911;28;20169;-69
2024/02/03 04:46:45;;;;;;;83.50;41.85;;;9.40;99.90;;;;;;5075029;28;20032;-68
2024/02/03 04:49:11;;;;;;;82.97;41.45;;;9.40;99.90;;;;;;5075122;28;20065;-69
2024/02/03 04:51:36;;;;;;;78.78;41.45;;;9.40;99.90;;;;;;5075086;28;20421;-69
2024/02/03 04:54:02;;;;;;;80.57;40.30;;;9.40;99.90;;;;;;5074685;28;20049;-68
2024/02/03 04:56:28;;;;;;;80.88;40.45;;;9.40;99.90;;;;;;5074870;28;20185;-69
2024/02/03 04:58:53;;;;;;;78.65;39.78;;;9.40;99.90;;;;;;5074871;28;20057;-69
2024/02/03 05:01:19;;;;;;;78.50;39.08;;;9.40;99.90;;;;;;5074356;28;20033;-69
2024/02/03 05:03:44;;;;;;;85.65;41.17;;;9.40;99.90;;;;;;5074689;28;20165;-69
2024/02/03 05:06:11;;;;;;;80.78;40.55;;;9.40;99.90;;;;;;5074420;28;20028;-69
2024/02/03 05:08:37;;;;;;;83.22;40.47;;;9.40;99.90;;;;;;5074350;28;20181;-69
2024/02/03 05:11:03;;;;;;;78.85;39.15;;;9.40;99.90;;;;;;5074708;28;20042;-69
2024/02/03 05:13:28;;;;;;;79.57;39.97;;;9.40;99.90;;;;;;5073325;28;20020;-69
2024/02/03 05:15:54;;;;;;;83.15;41.15;;;9.40;99.90;;;;;;5074171;28;20028;-68
2024/02/03 05:18:21;;;;;;;84.35;42.35;;;9.40;99.90;;;;;;5074336;28;20088;-69
2024/02/03 05:20:46;;;;;;;83.60;41.75;;;9.40;99.90;;;;;;5074427;28;20036;-69
2024/02/03 05:23:12;;;;;;;79.43;39.35;;;9.40;99.90;;;;;;5074424;28;20128;-69
2024/02/03 05:25:37;;;;;;;86.57;42.35;;;9.40;99.90;;;;;;5074054;28;20032;-68
2024/02/03 05:28:03;;;;;;;89.00;42.95;;;9.40;99.90;;;;;;5074323;28;20494;-68
2024/02/03 05:30:29;;;;;;;86.32;41.88;;;9.30;99.90;;;;;;5074121;28;20469;-68
2024/02/03 05:32:54;;;;;;;86.63;40.88;;;9.40;99.90;;;;;;5074039;28;20028;-69
2024/02/03 05:35:19;;;;;;;86.88;40.78;;;9.30;99.90;;;;;;5074055;28;20044;-68
2024/02/03 05:37:45;;;;;;;93.07;43.80;;;9.30;99.90;;;;;;5073838;28;20064;-68
2024/02/03 05:40:11;;;;;;;88.10;42.20;;;9.30;99.90;;;;;;5073892;28;20107;-68
2024/02/03 05:42:36;;;;;;;95.00;42.75;;;9.30;99.90;;;;;;5073681;28;20032;-68
2024/02/03 05:45:02;;;;;;;93.43;41.88;;;9.30;99.90;;;;;;5073594;28;20044;-67
2024/02/03 05:47:28;;;;;;;98.63;43.45;;;9.30;99.90;;;;;;5074067;28;20055;-68
2024/02/03 05:49:53;;;;;;;94.97;41.22;;;9.30;99.90;;;;;;5073292;28;20033;-68
2024/02/03 05:52:19;;;;;;;90.30;40.58;;;9.30;99.90;;;;;;5073749;28;20111;-68
2024/02/03 05:54:44;;;;;;;100.82;43.63;;;9.30;99.90;;;;;;5073630;28;20162;-68
2024/02/03 05:57:13;;;;;;;97.25;42.47;;;9.30;99.90;;;;;;5073646;28;20127;-68
2024/02/03 05:59:46;;;;;;;101.07;42.88;;;9.30;99.90;;;;;;5073451;28;20020;-67
2024/02/03 06:02:12;;;;;;;102.05;42.60;;;9.30;99.90;;;;;;5073552;28;20090;-67
2024/02/03 06:04:40;;;;;;;100.53;41.70;;;9.30;99.90;;;;;;5073461;28;20037;-67
2024/02/03 06:07:06;;;;;;;101.93;42.20;;;9.30;99.90;;;;;;5073284;28;20027;-67
2024/02/03 06:09:32;;;;;;;103.22;43.60;;;9.30;99.90;;;;;;5073559;28;20025;-67
2024/02/03 06:11:57;;;;;;;99.10;43.20;;;9.30;99.90;;;;;;5073696;28;20040;-67
2024/02/03 06:14:23;;;;;;;106.20;43.17;;;9.30;99.90;;;;;;5073493;28;20491;-67
2024/02/03 06:16:49;;;;;;;102.90;43.15;;;9.30;99.90;;;;;;5072094;28;20054;-67
2024/02/03 06:19:15;;;;;;;104.63;43.60;;;9.30;99.90;;;;;;5073378;28;20390;-67
2024/02/03 06:21:41;;;;;;;105.90;44.10;;;9.30;99.90;;;;;;5073460;28;20032;-67
2024/02/03 06:24:06;;;;;;;103.35;43.95;;;9.30;99.90;;;;;;5073340;28;20029;-67
2024/02/03 06:26:32;;;;;;;110.03;45.38;;;9.30;99.90;;;;;;5073157;28;20505;-67
2024/02/03 06:28:58;;;;;;;111.03;45.42;;;9.40;99.90;;;;;;5073160;28;20386;-67
2024/02/03 06:31:24;;;;;;;106.07;44.08;;;9.40;99.90;;;;;;5073239;28;20052;-67
2024/02/03 06:33:49;;;;;;;111.35;46.47;;;9.30;99.90;;;;;;5073060;28;20479;-67
2024/02/03 06:36:15;;;;;;;109.88;45.17;;;9.40;99.90;;;;;;5073037;28;20025;-67
2024/02/03 06:38:40;;;;;;;115.05;46.80;;;9.40;99.90;;;;;;5073188;28;20020;-67
2024/02/03 06:41:06;;;;;;;113.78;47.50;;;9.40;99.90;;;;;;5073237;28;20062;-68
2024/02/03 06:43:32;;;;;;;112.53;45.85;;;9.40;99.90;;;;;;5072876;28;20052;-67
2024/02/03 06:45:57;;;;;;;105.22;43.67;;;9.40;99.90;;;;;;5072917;28;20368;-67
2024/02/03 06:48:23;;;;;;;112.07;44.55;;;9.40;99.90;;;;;;5072883;28;20067;-67
2024/02/03 06:50:49;;;;;;;99.25;43.13;;;9.40;99.90;;;;;;5072681;28;20016;-67
2024/02/03 06:53:15;;;;;;;97.65;41.40;;;9.40;99.90;;;;;;5072918;28;20029;-67
2024/02/03 06:55:41;;;;;;;99.30;42.63;;;9.40;99.90;;;;;;5072883;28;20029;-67
2024/02/03 06:58:06;;;;;;;102.05;42.20;;;9.40;99.90;;;;;;5072870;28;20035;-67
2024/02/03 07:00:32;;;;;;;98.93;42.13;;;9.40;99.90;;;;;;5074227;28;20029;-67
2024/02/03 07:02:57;;;;;;;95.30;42.00;;;9.40;99.90;;;;;;5077096;28;20035;-67
2024/02/03 07:05:23;;;;;;;100.78;42.80;;;9.40;99.90;;;;;;5076830;28;20166;-67
2024/02/03 07:07:48;;;;;;;107.13;44.47;;;9.50;99.90;;;;;;5076850;28;20021;-68
2024/02/03 07:10:14;;;;;;;102.40;44.13;;;9.40;99.90;;;;;;5076863;28;20052;-67
2024/02/03 07:12:39;;;;;;;102.82;43.92;;;9.40;99.90;;;;;;5076802;28;20032;-68
2024/02/03 07:15:05;;;;;;;106.22;42.70;;;9.40;99.90;;;;;;5077100;28;20123;-67
2024/02/03 07:17:31;;;;;;;106.15;44.45;;;9.50;99.90;;;;;;5076755;28;20035;-67
2024/02/03 07:19:57;;;;;;;110.75;44.90;;;9.40;99.90;;;;;;5076479;28;20546;-67
2024/02/03 07:22:22;;;;;;;108.95;46.45;;;9.40;99.90;;;;;;5076582;28;20047;-67
2024/02/03 07:24:48;;;;;;;105.78;44.70;;;9.50;99.90;;;;;;5076568;28;20032;-67
2024/02/03 07:27:13;;;;;;;96.88;42.70;;;9.50;99.90;;;;;;5076294;28;20059;-67
2024/02/03 07:29:39;;;;;;;104.70;43.22;;;9.50;99.90;;;;;;5076449;28;20020;-67
2024/02/03 07:32:05;;;;;;;108.80;46.53;;;9.50;99.90;;;;;;5076658;28;20021;-67
2024/02/03 07:34:30;;;;;;;107.80;43.25;;;9.50;99.90;;;;;;5076419;28;20497;-67
2024/02/03 07:36:56;;;;;;;101.05;42.28;;;9.50;99.90;;;;;;5076561;28;20029;-67
2024/02/03 07:39:22;;;;;;;94.43;39.53;;;9.50;99.90;;;;;;5076385;28;20032;-67
2024/02/03 07:41:47;;;;;;;100.68;41.85;;;9.50;99.90;;;;;;5076252;28;20086;-67
2024/02/03 07:44:13;;;;;;;98.78;41.67;;;9.50;99.90;;;;;;5075935;28;20051;-66
2024/02/03 07:46:40;;;;;;;100.30;40.75;;;9.50;99.90;;;;;;5076383;28;20020;-67
2024/02/03 07:49:05;;;;;;;92.75;39.08;;;9.50;99.90;;;;;;5076060;28;20444;-66
2024/02/03 07:51:31;;;;;;;98.03;40.63;;;9.50;99.90;;;;;;5076145;28;20020;-66
2024/02/03 07:53:57;;;;;;;94.30;38.58;;;9.50;99.90;;;;;;5076178;28;20032;-66
2024/02/03 07:56:22;;;;;;;86.88;36.50;;;9.50;99.90;;;;;;5075935;28;20414;-66
2024/02/03 07:58:49;;;;;;;85.03;37.53;;;9.60;99.90;;;;;;5076317;28;20433;-66
2024/02/03 08:01:15;;;;;;;97.72;45.20;;;9.60;99.90;;;;;;5076618;28;20021;-66
2024/02/03 08:03:41;;;;;;;87.47;37.00;;;9.50;99.90;;;;;;5076059;28;20048;-66
2024/02/03 08:06:07;;;;;;;89.63;36.80;;;9.50;99.90;;;;;;5076151;28;20162;-66
2024/02/03 08:08:32;;;;;;;91.60;37.75;;;9.60;99.90;;;;;;5076414;28;20120;-66
2024/02/03 08:10:58;;;;;;;90.68;36.72;;;9.60;99.90;;;;;;5075870;28;20025;-66
2024/02/03 08:13:24;;;;;;;89.68;37.40;;;9.60;99.90;;;;;;5074745;28;20025;-66
2024/02/03 08:15:49;;;;;;;84.60;37.15;;;9.60;99.90;;;;;;5075602;28;20510;-66
2024/02/03 08:18:15;;;;;;;96.20;39.10;;;9.60;99.90;;;;;;5075570;28;20032;-66
2024/02/03 08:20:40;;;;;;;92.03;40.17;;;9.60;99.90;;;;;;5075991;28;20037;-66
2024/02/03 08:23:06;;;;;;;94.57;38.17;;;9.60;99.90;;;;;;5075696;28;20039;-67
2024/02/03 08:25:31;;;;;;;97.75;40.67;;;9.60;99.90;;;;;;5075477;28;20024;-66
2024/02/03 08:27:57;;;;;;;101.13;41.75;;;9.60;99.90;;;;;;5075460;28;20036;-66
2024/02/03 08:30:22;;;;;;;99.22;42.05;;;9.60;99.90;;;;;;5075359;28;20028;-66
2024/02/03 08:32:48;;;;;;;92.03;39.25;;;9.60;99.90;;;;;;5075599;28;20031;-67
2024/02/03 08:35:14;;;;;;;92.80;39.55;;;9.70;99.90;;;;;;5075656;28;20470;-66
2024/02/03 08:37:39;;;;;;;95.28;39.35;;;9.70;99.90;;;;;;5076749;28;20033;-66
2024/02/03 08:40:05;;;;;;;86.55;36.83;;;9.70;99.90;;;;;;5077136;28;20367;-65
2024/02/03 08:42:31;;;;;;;93.90;39.85;;;9.70;99.90;;;;;;5077037;28;20074;-65
2024/02/03 08:44:57;;;;;;;97.93;40.30;;;9.80;99.90;;;;;;5076382;28;20498;-65
2024/02/03 08:47:23;;;;;;;97.75;40.28;;;9.80;99.90;;;;;;5076921;28;20032;-66
2024/02/03 08:49:50;;;;;;;94.28;39.78;;;9.80;99.90;;;;;;5076741;28;20024;-65
2024/02/03 08:52:16;;;;;;;99.20;40.58;;;9.80;99.90;;;;;;5076972;28;20020;-66
2024/02/03 08:54:41;;;;;;;99.28;44.33;;;9.80;99.90;;;;;;5076018;28;20398;-66
2024/02/03 08:57:07;;;;;;;96.63;42.78;;;9.80;99.90;;;;;;5075402;28;20493;-66
2024/02/03 08:59:32;;;;;;;99.90;42.58;;;9.80;99.90;;;;;;5075047;28;20037;-66
2024/02/03 09:01:58;;;;;;;104.65;44.22;;;9.80;99.90;;;;;;5075568;28;20032;-66
2024/02/03 09:04:23;;;;;;;94.80;42.75;;;9.80;99.90;;;;;;5075320;28;20029;-66
2024/02/03 09:06:49;;;;;;;93.43;41.95;;;9.80;99.90;;;;;;5075026;28;20036;-66
2024/02/03 09:09:14;;;;;;;94.85;41.90;;;9.80;99.90;;;;;;5074909;28;20028;-66
2024/02/03 09:11:40;;;;;;;93.82;41.05;;;9.80;99.90;;;;;;5074824;28;20074;-66
2024/02/03 09:14:05;;;;;;;89.32;40.53;;;9.90;99.90;;;;;;5074922;28;20498;-66
2024/02/03 09:16:31;;;;;;;87.30;40.45;;;9.80;99.90;;;;;;5074360;28;20062;-66
2024/02/03 09:18:56;;;;;;;88.55;40.70;;;9.90;99.90;;;;;;5074416;28;20116;-66
2024/02/03 09:21:22;;;;;;;89.00;42.13;;;9.20;99.90;;;;;;5074214;28;20031;-66
2024/02/03 09:23:48;;;;;;;88.80;40.35;;;9.90;99.90;;;;;;5073416;28;20040;-66
2024/02/03 09:26:13;;;;;;;79.57;37.88;;;9.90;99.90;;;;;;5074396;28;20028;-66
2024/02/03 09:28:39;;;;;;;79.28;36.92;;;9.90;99.90;;;;;;5074561;28;20116;-66
2024/02/03 09:31:05;;;;;;;79.97;37.17;;;9.90;99.90;;;;;;5074306;28;20024;-65
2024/02/03 09:33:31;;;;;;;81.55;38.15;;;9.90;99.90;;;;;;5074272;28;20032;-66
2024/02/03 09:35:57;;;;;;;70.78;35.58;;;10.00;99.90;;;;;;5074223;28;20028;-66
2024/02/03 09:38:22;;;;;;;82.65;38.50;;;10.00;99.90;;;;;;5073977;28;20036;-66
2024/02/03 09:40:48;;;;;;;73.45;37.28;;;10.00;99.90;;;;;;5073983;28;20028;-66
2024/02/03 09:43:14;;;;;;;67.57;34.05;;;9.90;99.90;;;;;;5073683;28;20049;-66
2024/02/03 09:45:40;;;;;;;67.80;33.83;;;9.90;99.90;;;;;;5073852;28;20107;-66
2024/02/03 09:48:06;;;;;;;69.70;34.85;;;10.00;99.90;;;;;;5074047;28;20028;-66
2024/02/03 09:50:32;;;;;;;68.45;33.80;;;10.00;99.90;;;;;;5073995;28;20028;-66
2024/02/03 09:53:00;;;;;;;63.60;32.38;;;10.00;99.90;;;;;;5073741;28;20070;-66
2024/02/03 09:55:26;;;;;;;63.20;30.48;;;10.00;99.90;;;;;;5073655;28;20024;-66
2024/02/03 09:57:52;;;;;;;65.65;33.45;;;10.00;99.90;;;;;;5073521;28;20123;-66
2024/02/03 10:00:20;;;;;;;62.67;32.35;;;10.10;99.90;;;;;;5073587;28;20028;-66
2024/02/03 10:02:46;;;;;;;58.45;31.88;;;10.00;99.90;;;;;;5073481;28;20029;-66
2024/02/03 10:05:12;;;;;;;60.53;30.17;;;10.00;99.90;;;;;;5073518;28;20027;-66
2024/02/03 10:07:37;;;;;;;63.28;31.58;;;10.10;99.90;;;;;;5073639;28;20482;-66
2024/02/03 10:10:05;;;;;;;61.58;31.92;;;10.10;99.90;;;;;;5073407;28;20147;-66
2024/02/03 10:12:30;;;;;;;60.25;31.02;;;10.10;99.90;;;;;;5073443;28;20028;-66
2024/02/03 10:15:02;;;;;;;58.13;30.88;;;10.10;99.90;;;;;;5073307;28;20074;-66
2024/02/03 10:17:28;;;;;;;62.08;31.48;;;10.10;99.90;;;;;;5073257;28;20035;-66
2024/02/03 10:19:53;;;;;;;62.03;32.20;;;10.10;99.90;;;;;;5073219;28;20036;-66
2024/02/03 10:22:19;;;;;;;59.60;31.58;;;10.20;99.90;;;;;;5073495;28;20032;-66
2024/02/03 10:24:45;;;;;;;63.72;33.17;;;10.10;99.90;;;;;;5073192;28;20024;-66
2024/02/03 10:27:10;;;;;;;63.63;33.00;;;10.10;99.90;;;;;;5073375;28;20111;-67
2024/02/03 10:29:36;;;;;;;63.15;34.47;;;10.10;99.90;;;;;;5073295;28;20059;-66
2024/02/03 10:32:02;;;;;;;67.93;34.40;;;10.10;99.90;;;;;;5073350;28;20107;-66
2024/02/03 10:34:29;;;;;;;62.30;33.50;;;10.10;99.90;;;;;;5071752;28;20081;-66
2024/02/03 10:36:55;;;;;;;66.07;34.67;;;10.10;99.90;;;;;;5072848;28;20035;-66
2024/02/03 10:39:20;;;;;;;65.93;35.35;;;10.10;99.90;;;;;;5073114;28;20029;-67
2024/02/03 10:41:47;;;;;;;64.45;34.00;;;10.10;99.90;;;;;;5073336;28;20062;-67
2024/02/03 10:44:22;;;;;;;69.53;35.22;;;10.10;99.90;;;;;;5072842;28;20379;-67
2024/02/03 10:46:51;;;;;;;70.53;35.08;;;10.10;99.90;;;;;;5072066;28;20102;-66
2024/02/03 10:49:19;;;;;;;65.32;34.53;;;10.10;99.90;;;;;;5072820;28;20035;-66
2024/02/03 10:51:48;;;;;;;74.15;38.00;;;10.00;99.90;;;;;;5073101;28;20103;-66
2024/02/03 10:54:17;;;;;;;67.20;35.58;;;10.10;99.90;;;;;;5073142;28;20028;-66
2024/02/03 10:56:47;;;;;;;64.22;36.30;;;10.10;99.90;;;;;;5072942;28;20509;-66
2024/02/03 10:59:19;;;;;;;64.85;33.67;;;10.10;99.90;;;;;;5072933;28;20029;-67
2024/02/03 11:01:45;;;;;;;71.65;34.22;;;10.10;99.90;;;;;;5072695;28;20021;-67
2024/02/03 11:04:13;;;;;;;61.10;33.53;;;10.10;99.90;;;;;;5072878;28;20027;-67
2024/02/03 11:06:39;;;;;;;66.55;33.83;;;10.20;99.90;;;;;;5072913;28;20427;-67
2024/02/03 11:09:13;;;;;;;63.10;32.55;;;10.20;99.90;;;;;;5072656;28;20056;-66
2024/02/03 11:11:41;;;;;;;58.78;31.30;;;10.10;99.90;;;;;;5072732;28;20104;-66
2024/02/03 11:14:11;;;;;;;61.50;30.65;;;10.20;99.90;;;;;;5072677;28;20099;-66
2024/02/03 11:16:38;;;;;;;57.45;30.60;;;10.10;99.90;;;;;;5072604;28;20455;-66
2024/02/03 11:19:03;;;;;;;51.60;26.73;;;10.20;99.90;;;;;;5072649;28;20433;-66
2024/02/03 11:21:29;;;;;;;50.92;26.27;;;10.20;99.90;;;;;;5072659;28;20028;-66
2024/02/03 11:23:55;;;;;;;46.97;25.63;;;10.30;99.90;;;;;;5072588;28;20171;-66
2024/02/03 11:26:21;;;;;;;51.03;27.38;;;10.20;99.90;;;;;;5072608;28;20111;-66
2024/02/03 11:28:47;;;;;;;51.10;26.63;;;10.10;99.90;;;;;;5072529;28;20070;-66
2024/02/03 11:31:12;;;;;;;53.33;27.13;;;10.30;99.90;;;;;;5072615;28;20364;-66
2024/02/03 11:33:43;;;;;;;50.80;26.30;;;10.20;99.90;;;;;;5072626;28;20033;-67
2024/02/03 11:36:10;;;;;;;50.50;27.42;;;10.30;99.90;;;;;;5071575;28;20419;-66
2024/02/03 11:38:44;;;;;;;51.38;27.17;;;10.20;99.90;;;;;;5072319;28;20539;-67
2024/02/03 11:41:10;;;;;;;48.25;24.88;;;10.30;99.90;;;;;;5072624;28;20087;-66
2024/02/03 11:43:35;;;;;;;51.47;25.75;;;10.20;99.90;;;;;;5072732;28;20056;-66
2024/02/03 11:46:05;;;;;;;48.08;25.88;;;10.30;99.90;;;;;;5072644;28;20025;-67
2024/02/03 11:48:31;;;;;;;50.35;26.70;;;10.30;99.90;;;;;;5075361;28;20482;-67
2024/02/03 11:50:57;;;;;;;45.58;25.55;;;10.30;99.90;;;;;;5076036;28;20056;-67
2024/02/03 11:53:26;;;;;;;48.10;25.92;;;10.30;99.90;;;;;;5076358;28;20060;-68
2024/02/03 11:55:54;;;;;;;49.92;25.80;;;10.30;99.90;;;;;;5076288;28;20036;-67
2024/02/03 11:58:20;;;;;;;48.15;25.27;;;10.30;99.90;;;;;;5076301;28;20043;-67
2024/02/03 12:00:46;;;;;;;45.35;25.30;;;10.40;99.90;;;;;;5076178;28;20494;-68
2024/02/03 12:03:12;;;;;;;42.10;24.80;;;10.40;99.90;;;;;;5076224;28;20024;-67
2024/02/03 12:05:38;;;;;;;42.95;23.23;;;10.30;99.90;;;;;;5075855;28;20506;-67
2024/02/03 12:08:04;;;;;;;40.65;22.85;;;10.10;99.90;;;;;;5075887;28;20032;-67
2024/02/03 12:10:30;;;;;;;40.05;23.20;;;10.40;99.90;;;;;;5075961;28;20031;-67
2024/02/03 12:13:03;;;;;;;39.33;23.60;;;10.40;99.90;;;;;;5075422;28;20394;-67
2024/02/03 12:15:29;;;;;;;49.25;25.73;;;10.40;99.90;;;;;;5075725;28;20052;-67
2024/02/03 12:18:01;;;;;;;41.38;23.88;;;10.40;99.90;;;;;;5075629;28;20029;-67
2024/02/03 12:20:26;;;;;;;38.22;22.30;;;10.50;99.90;;;;;;5075589;28;20025;-67
2024/02/03 12:22:52;;;;;;;42.50;23.52;;;10.30;99.90;;;;;;5075496;28;20386;-67
2024/02/03 12:25:17;;;;;;;39.60;23.20;;;10.40;99.90;;;;;;5075259;28;20139;-67